createdAt,value
2017-12-04T00:00:46.220Z,43.97
2017-12-04T00:03:15.086Z,45.27
2017-12-04T00:05:43.935Z,45.80
2017-12-04T00:08:12.815Z,41.80
2017-12-04T00:10:41.664Z,43.13
2017-12-04T00:13:10.524Z,42.67
2017-12-04T00:15:39.396Z,43.47
2017-12-04T00:18:08.299Z,42.83
2017-12-04T00:20:37.151Z,43.90
2017-12-04T00:23:06.955Z,45.53
2017-12-04T00:25:35.814Z,43.43
2017-12-04T00:28:04.684Z,41.97
2017-12-04T00:30:33.570Z,40.40
2017-12-04T00:33:02.464Z,41.17
2017-12-04T00:35:31.332Z,40.53
2017-12-04T00:38:00.228Z,42.90
2017-12-04T00:40:29.094Z,40.97
2017-12-04T00:45:31.124Z,38.23
2017-12-04T00:48:00.216Z,42.63
2017-12-04T00:50:29.054Z,39.23
2017-12-04T00:52:57.932Z,40.80
2017-12-04T00:55:26.774Z,38.43
2017-12-04T00:57:55.676Z,37.00
2017-12-04T01:00:24.579Z,35.87
2017-12-04T01:02:54.372Z,36.77
2017-12-04T01:05:23.251Z,37.23
2017-12-04T01:07:52.126Z,35.73
2017-12-04T01:10:20.968Z,37.97
2017-12-04T01:12:49.815Z,39.97
2017-12-04T01:15:19.831Z,38.40
2017-12-04T01:17:48.687Z,37.10
2017-12-04T01:20:17.736Z,37.23
2017-12-04T01:22:46.648Z,36.50
2017-12-04T01:25:15.504Z,35.73
2017-12-04T01:27:44.348Z,34.73
2017-12-04T01:30:13.230Z,34.37
2017-12-04T01:32:42.071Z,35.10
2017-12-04T01:35:10.930Z,34.50
2017-12-04T01:37:39.951Z,31.83
2017-12-04T01:40:08.791Z,34.17
2017-12-04T01:42:37.675Z,31.17
2017-12-04T01:45:06.639Z,31.27
2017-12-04T01:47:35.481Z,31.90
2017-12-04T01:50:04.332Z,30.13
2017-12-04T01:52:34.155Z,30.67
2017-12-04T01:55:03.076Z,28.40
2017-12-04T01:57:31.931Z,28.90
2017-12-04T02:00:00.804Z,29.87
2017-12-04T02:02:30.072Z,27.53
2017-12-04T02:04:58.926Z,26.53
2017-12-04T02:07:27.795Z,27.37
2017-12-04T02:09:56.653Z,26.97
2017-12-04T02:12:25.499Z,27.93
2017-12-04T02:14:54.364Z,24.67
2017-12-04T02:17:23.223Z,25.17
2017-12-04T02:19:52.067Z,26.30
2017-12-04T02:22:20.930Z,28.93
2017-12-04T02:24:49.780Z,31.23
2017-12-04T02:27:18.660Z,29.23
2017-12-04T02:29:47.557Z,29.50
2017-12-04T02:32:16.407Z,32.10
2017-12-04T02:34:45.258Z,29.97
2017-12-04T02:37:14.130Z,31.23
2017-12-04T02:39:42.982Z,30.87
2017-12-04T02:42:11.826Z,31.87
2017-12-04T02:44:41.599Z,32.80
2017-12-04T02:47:10.445Z,32.67
2017-12-04T02:49:39.307Z,33.73
2017-12-04T02:52:08.212Z,34.40
2017-12-04T02:54:37.568Z,32.73
2017-12-04T02:57:06.434Z,33.67
2017-12-04T02:59:35.308Z,33.97
2017-12-04T03:02:04.152Z,33.30
2017-12-04T03:04:33.004Z,35.43
2017-12-04T03:07:02.734Z,33.87
2017-12-04T03:09:32.368Z,35.00
2017-12-04T03:12:01.238Z,35.63
2017-12-04T03:14:30.453Z,34.93
2017-12-04T03:16:59.310Z,35.83
2017-12-04T03:19:28.148Z,32.70
2017-12-04T03:21:57.015Z,34.90
2017-12-04T03:24:25.867Z,35.77
2017-12-04T03:26:54.705Z,36.10
2017-12-04T03:29:23.604Z,34.57
2017-12-04T03:31:52.763Z,38.40
2017-12-04T03:34:22.377Z,38.13
2017-12-04T03:36:52.038Z,41.67
2017-12-04T03:39:20.919Z,40.70
2017-12-04T03:41:49.784Z,43.93
2017-12-04T03:44:18.686Z,36.20
2017-12-04T03:46:47.540Z,41.53
2017-12-04T03:49:16.431Z,37.63
2017-12-04T03:51:45.340Z,38.60
2017-12-04T03:54:15.358Z,42.43
2017-12-04T03:56:44.218Z,40.57
2017-12-04T03:59:13.568Z,40.33
2017-12-04T04:01:42.416Z,38.30
2017-12-04T04:04:11.262Z,36.57
2017-12-04T04:06:40.136Z,38.63
2017-12-04T04:09:08.992Z,37.00
2017-12-04T04:11:37.853Z,34.80
2017-12-04T04:14:06.760Z,37.43
2017-12-04T04:16:35.650Z,38.87
2017-12-04T04:19:05.204Z,48.40
2017-12-04T04:21:34.076Z,44.43
2017-12-04T04:24:02.942Z,35.23
2017-12-04T04:26:31.783Z,35.13
2017-12-04T04:29:00.714Z,35.63
2017-12-04T04:31:29.575Z,34.93
2017-12-04T04:33:58.420Z,37.60
2017-12-04T04:36:27.304Z,34.93
2017-12-04T04:38:56.148Z,34.63
2017-12-04T04:41:25.004Z,34.20
2017-12-04T04:43:53.860Z,34.07
2017-12-04T04:46:22.708Z,34.10
2017-12-04T04:48:51.576Z,34.27
2017-12-04T04:51:20.456Z,30.87
2017-12-04T04:53:49.315Z,32.97
2017-12-04T04:56:18.160Z,32.60
2017-12-04T04:58:47.592Z,31.60
2017-12-04T05:01:16.437Z,32.00
2017-12-04T05:03:46.171Z,29.53
2017-12-04T05:06:15.020Z,31.97
2017-12-04T05:08:43.876Z,33.07
2017-12-04T05:11:12.736Z,31.33
2017-12-04T05:13:41.627Z,31.63
2017-12-04T05:16:10.539Z,31.20
2017-12-04T05:18:39.390Z,30.50
2017-12-04T05:21:08.270Z,31.27
2017-12-04T05:23:37.114Z,30.37
2017-12-04T05:26:05.962Z,30.67
2017-12-04T05:28:34.828Z,33.47
2017-12-04T05:31:03.960Z,29.10
2017-12-04T05:33:32.800Z,29.70
2017-12-04T05:36:01.722Z,29.00
2017-12-04T05:38:30.588Z,25.07
2017-12-04T05:40:59.440Z,25.97
2017-12-04T05:43:28.362Z,25.90
2017-12-04T05:45:57.228Z,25.37
2017-12-04T05:48:26.066Z,25.63
2017-12-04T05:50:54.930Z,24.63
2017-12-04T05:53:23.816Z,24.10
2017-12-04T05:55:52.652Z,24.33
2017-12-04T05:58:21.526Z,22.93
2017-12-04T06:00:50.399Z,22.83
2017-12-04T06:03:19.248Z,22.93
2017-12-04T06:05:48.103Z,23.50
2017-12-04T06:08:16.968Z,23.63
2017-12-04T06:10:45.812Z,23.93
2017-12-04T06:13:15.446Z,22.67
2017-12-04T06:15:44.303Z,22.33
2017-12-04T06:18:13.142Z,22.47
2017-12-04T06:20:41.996Z,21.50
2017-12-04T06:23:10.841Z,22.57
2017-12-04T06:25:39.916Z,21.90
2017-12-04T06:28:08.781Z,21.73
2017-12-04T06:30:38.643Z,23.00
2017-12-04T06:33:07.490Z,22.90
2017-12-04T06:35:36.384Z,21.77
2017-12-04T06:38:05.242Z,23.23
2017-12-04T06:40:34.078Z,21.90
2017-12-04T06:43:02.964Z,20.93
2017-12-04T06:45:31.844Z,22.60
2017-12-04T06:48:01.536Z,22.67
2017-12-04T06:50:30.396Z,22.57
2017-12-04T06:52:59.260Z,20.73
2017-12-04T06:55:28.104Z,21.17
2017-12-04T06:57:56.948Z,22.10
2017-12-04T07:00:25.791Z,20.73
2017-12-04T07:02:54.708Z,22.80
2017-12-04T07:05:23.575Z,22.00
2017-12-04T07:07:52.407Z,22.27
2017-12-04T07:10:21.244Z,20.77
2017-12-04T07:12:50.104Z,22.50
2017-12-04T07:15:19.060Z,22.10
2017-12-04T07:17:47.899Z,21.00
2017-12-04T07:20:16.822Z,22.77
2017-12-04T07:22:46.376Z,22.20
2017-12-04T07:25:15.942Z,23.00
2017-12-04T07:27:45.129Z,22.23
2017-12-04T07:30:13.971Z,22.13
2017-12-04T07:32:42.813Z,20.67
2017-12-04T07:35:12.453Z,20.17
2017-12-04T07:37:41.326Z,19.63
2017-12-04T07:40:10.159Z,20.93
2017-12-04T07:42:39.015Z,19.53
2017-12-04T07:45:07.950Z,20.23
2017-12-04T07:47:36.790Z,23.53
2017-12-04T07:50:05.688Z,89.67
2017-12-04T07:52:34.535Z,25.23
2017-12-04T07:55:03.391Z,34.23
2017-12-04T07:57:32.259Z,20.60
2017-12-04T08:00:01.124Z,19.07
2017-12-04T08:02:29.969Z,18.63
2017-12-04T08:04:59.504Z,19.10
2017-12-04T08:07:28.383Z,20.37
2017-12-04T08:09:57.236Z,19.40
2017-12-04T08:12:26.835Z,18.87
2017-12-04T08:14:55.697Z,19.77
2017-12-04T08:17:24.540Z,33.23
2017-12-04T08:19:53.449Z,25.77
2017-12-04T08:22:23.155Z,19.33
2017-12-04T08:24:52.004Z,25.40
2017-12-04T08:27:20.866Z,21.27
2017-12-04T08:29:49.717Z,20.17
2017-12-04T08:32:18.582Z,20.33
2017-12-04T08:34:47.829Z,20.40
2017-12-04T08:37:19.527Z,21.20
2017-12-04T08:39:48.398Z,20.27
2017-12-04T08:42:17.257Z,20.47
2017-12-04T08:44:47.474Z,31.30
2017-12-04T08:47:16.406Z,19.90
2017-12-04T08:49:45.294Z,20.33
2017-12-04T08:52:14.139Z,20.37
2017-12-04T08:54:43.006Z,19.23
2017-12-04T08:57:11.854Z,20.07
2017-12-04T08:59:40.780Z,19.37
2017-12-04T09:02:09.640Z,21.23
2017-12-04T09:04:39.768Z,21.10
2017-12-04T09:07:07.404Z,24.33
2017-12-04T09:09:36.265Z,23.10
2017-12-04T09:12:05.111Z,21.50
2017-12-04T09:14:33.954Z,18.43
2017-12-04T09:17:02.827Z,16.93
2017-12-04T09:19:31.708Z,15.53
2017-12-04T09:22:00.568Z,12.33
2017-12-04T09:24:29.448Z,12.73
2017-12-04T09:26:58.298Z,11.43
2017-12-04T09:29:27.164Z,10.60
2017-12-04T09:31:56.105Z,10.80
2017-12-04T09:34:24.947Z,10.40
2017-12-04T09:36:54.200Z,10.47
2017-12-04T09:39:23.076Z,9.77
2017-12-04T09:41:51.908Z,9.37
2017-12-04T09:44:22.236Z,8.90
2017-12-04T09:46:51.121Z,8.93
2017-12-04T09:49:19.960Z,10.13
2017-12-04T09:51:50.164Z,9.50
2017-12-04T09:54:20.344Z,9.40
2017-12-04T09:56:49.815Z,10.17
2017-12-04T09:59:18.673Z,8.50
2017-12-04T10:01:47.566Z,8.53
2017-12-04T10:04:16.408Z,9.77
2017-12-04T10:06:45.246Z,10.23
2017-12-04T10:09:14.134Z,9.67
2017-12-04T10:11:42.988Z,9.83
2017-12-04T10:14:11.845Z,9.90
2017-12-04T10:16:40.734Z,11.23
2017-12-04T10:19:09.584Z,10.20
2017-12-04T10:21:38.421Z,9.57
2017-12-04T10:24:07.278Z,9.40
2017-12-04T10:26:36.129Z,9.03
2017-12-04T10:29:04.980Z,9.33
2017-12-04T10:31:33.867Z,10.03
2017-12-04T10:34:02.752Z,10.97
2017-12-04T10:36:31.600Z,10.57
2017-12-04T10:39:00.477Z,10.00
2017-12-04T10:41:29.340Z,9.50
2017-12-04T10:43:58.175Z,10.37
2017-12-04T10:46:27.024Z,9.70
2017-12-04T10:48:56.368Z,9.47
2017-12-04T10:51:25.208Z,9.17
2017-12-04T10:53:54.076Z,8.80
2017-12-04T10:56:22.910Z,9.27
2017-12-04T10:58:51.746Z,8.37
2017-12-04T11:01:21.363Z,9.57
2017-12-04T11:03:50.590Z,13.60
2017-12-04T11:06:19.435Z,14.97
2017-12-04T11:08:48.301Z,16.03
2017-12-04T11:11:17.146Z,10.53
2017-12-04T11:13:45.990Z,11.87
2017-12-04T11:16:14.877Z,9.90
2017-12-04T11:18:43.748Z,9.73
2017-12-04T11:21:12.580Z,7.43
2017-12-04T11:23:41.455Z,8.00
2017-12-04T11:26:10.996Z,7.60
2017-12-04T11:28:39.856Z,7.63
2017-12-04T11:31:09.328Z,8.07
2017-12-04T11:33:38.172Z,8.00
2017-12-04T11:36:07.008Z,7.20
2017-12-04T11:38:35.883Z,7.23
2017-12-04T11:41:04.840Z,8.03
2017-12-04T11:43:33.689Z,8.23
2017-12-04T11:46:02.558Z,7.80
2017-12-04T11:48:31.503Z,7.37
2017-12-04T11:51:00.947Z,6.63
2017-12-04T11:53:29.856Z,6.47
2017-12-04T11:55:58.732Z,5.53
2017-12-04T11:58:27.571Z,5.40
2017-12-04T12:00:56.448Z,5.70
2017-12-04T12:03:25.394Z,6.17
2017-12-04T12:05:54.246Z,5.40
2017-12-04T12:08:23.121Z,5.60
2017-12-04T12:10:51.971Z,4.93
2017-12-04T12:13:20.810Z,5.20
2017-12-04T12:15:49.668Z,4.80
2017-12-04T12:18:19.561Z,4.97
2017-12-04T12:20:48.426Z,4.90
2017-12-04T12:23:17.288Z,5.50
2017-12-04T12:25:46.129Z,5.33
2017-12-04T12:28:14.982Z,5.53
2017-12-04T12:30:43.997Z,5.27
2017-12-04T12:33:12.872Z,5.30
2017-12-04T12:35:41.730Z,4.90
2017-12-04T12:38:10.596Z,5.10
2017-12-04T12:40:39.448Z,5.07
2017-12-04T12:43:08.295Z,5.90
2017-12-04T12:45:37.170Z,5.63
2017-12-04T12:48:06.017Z,5.80
2017-12-04T12:50:35.408Z,6.00
2017-12-04T12:53:04.289Z,5.70
2017-12-04T12:55:33.153Z,5.43
2017-12-04T12:58:02.016Z,5.33
2017-12-04T13:00:30.920Z,5.37
2017-12-04T13:02:59.784Z,6.07
2017-12-04T13:05:28.654Z,6.73
2017-12-04T13:07:57.535Z,8.23
2017-12-04T13:10:26.458Z,6.50
2017-12-04T13:12:56.046Z,8.93
2017-12-04T13:15:24.966Z,7.23
2017-12-04T13:17:54.124Z,6.30
2017-12-04T13:20:23.261Z,6.97
2017-12-04T13:22:52.636Z,7.07
2017-12-04T13:25:21.492Z,7.97
2017-12-04T13:27:50.335Z,7.47
2017-12-04T13:30:19.311Z,7.70
2017-12-04T13:32:53.870Z,7.43
2017-12-04T13:35:28.388Z,8.80
2017-12-04T13:37:57.235Z,7.50
2017-12-04T13:40:26.946Z,8.40
2017-12-04T13:42:56.734Z,7.80
2017-12-04T13:45:26.488Z,8.63
2017-12-04T13:47:56.058Z,8.70
2017-12-04T13:50:25.294Z,8.13
2017-12-04T13:52:54.132Z,8.80
2017-12-04T13:55:23.028Z,8.63
2017-12-04T13:57:52.468Z,10.27
2017-12-04T14:00:21.316Z,9.57
2017-12-04T14:02:50.166Z,9.77
2017-12-04T14:05:19.077Z,10.20
2017-12-04T14:07:47.958Z,9.60
2017-12-04T14:10:16.919Z,10.00
2017-12-04T14:12:45.802Z,10.13
2017-12-04T14:15:14.682Z,9.87
2017-12-04T14:17:43.514Z,12.97
2017-12-04T14:20:12.392Z,9.83
2017-12-04T14:22:41.222Z,21.30
2017-12-04T14:25:10.092Z,17.47
2017-12-04T14:27:38.976Z,11.80
2017-12-04T14:30:07.894Z,10.83
2017-12-04T14:32:38.013Z,12.90
2017-12-04T14:35:07.019Z,12.40
2017-12-04T14:37:35.899Z,14.27
2017-12-04T14:40:04.768Z,14.00
2017-12-04T14:42:34.955Z,13.93
2017-12-04T14:45:03.830Z,14.77
2017-12-04T14:47:33.596Z,13.53
2017-12-04T14:50:02.510Z,15.67
2017-12-04T14:52:31.352Z,14.10
2017-12-04T14:55:00.504Z,15.33
2017-12-04T14:57:29.376Z,15.33
2017-12-04T14:59:58.348Z,15.77
2017-12-04T15:02:27.213Z,17.33
2017-12-04T15:04:56.075Z,15.83
2017-12-04T15:07:25.917Z,17.23
2017-12-04T15:09:54.779Z,17.20
2017-12-04T15:12:23.705Z,18.40
2017-12-04T15:14:53.094Z,21.13
2017-12-04T15:17:21.980Z,19.67
2017-12-04T15:19:50.859Z,17.40
2017-12-04T15:22:19.704Z,17.37
2017-12-04T15:24:49.547Z,16.87
2017-12-04T15:27:18.888Z,17.37
2017-12-04T15:29:48.895Z,17.83
2017-12-04T15:32:17.756Z,32.10
2017-12-04T15:34:46.649Z,71.63
2017-12-04T15:37:15.495Z,20.03
2017-12-04T15:39:44.499Z,20.10
2017-12-04T15:42:13.357Z,21.30
2017-12-04T15:44:42.196Z,24.53
2017-12-04T15:47:11.086Z,21.73
2017-12-04T15:49:39.955Z,20.00
2017-12-04T15:52:08.817Z,20.63
2017-12-04T15:54:38.125Z,22.70
2017-12-04T15:57:07.643Z,21.07
2017-12-04T15:59:36.521Z,21.60
2017-12-04T16:02:05.378Z,17.63
2017-12-04T16:04:34.247Z,17.67
2017-12-04T16:07:03.111Z,17.77
2017-12-04T16:09:31.989Z,16.37
2017-12-04T16:12:00.897Z,16.77
2017-12-04T16:14:29.825Z,15.93
2017-12-04T16:16:58.728Z,16.67
2017-12-04T16:19:27.593Z,16.00
2017-12-04T16:21:56.438Z,13.77
2017-12-04T16:24:25.339Z,15.20
2017-12-04T16:26:54.200Z,15.30
2017-12-04T16:29:23.076Z,14.50
2017-12-04T16:31:51.960Z,15.23
2017-12-04T16:34:20.821Z,13.80
2017-12-04T16:36:49.687Z,13.57
2017-12-04T16:39:18.556Z,14.23
2017-12-04T16:41:47.447Z,13.57
2017-12-04T16:44:16.302Z,15.00
2017-12-04T16:46:45.162Z,14.27
2017-12-04T16:49:14.025Z,14.47
2017-12-04T16:51:42.901Z,14.43
2017-12-04T16:54:11.755Z,14.33
2017-12-04T16:56:40.647Z,13.63
2017-12-04T16:59:09.479Z,14.03
2017-12-04T17:01:38.334Z,14.40
2017-12-04T17:04:07.961Z,14.07
2017-12-04T17:06:37.051Z,13.63
2017-12-04T17:09:06.363Z,14.40
2017-12-04T17:11:35.885Z,14.20
2017-12-04T17:14:04.727Z,14.27
2017-12-04T17:16:33.596Z,14.23
2017-12-04T17:19:02.458Z,15.00
2017-12-04T17:21:31.399Z,14.77
2017-12-04T17:24:00.510Z,15.10
2017-12-04T17:26:29.359Z,16.03
2017-12-04T17:28:58.209Z,17.40
2017-12-04T17:31:27.043Z,17.43
2017-12-04T17:33:55.935Z,19.47
2017-12-04T17:36:24.786Z,23.77
2017-12-04T17:38:53.655Z,27.50
2017-12-04T17:41:22.648Z,18.20
2017-12-04T17:43:51.483Z,34.03
2017-12-04T17:46:20.341Z,38.40
2017-12-04T17:48:49.209Z,30.30
2017-12-04T17:51:18.057Z,42.23
2017-12-04T17:53:46.907Z,18.67
2017-12-04T17:56:16.477Z,20.90
2017-12-04T17:58:45.332Z,20.53
2017-12-04T18:01:14.174Z,18.20
2017-12-04T18:03:43.074Z,27.03
2017-12-04T18:06:11.947Z,19.40
2017-12-04T18:08:40.838Z,21.27
2017-12-04T18:11:09.720Z,21.73
2017-12-04T18:13:38.560Z,18.63
2017-12-04T18:16:07.400Z,19.50
2017-12-04T18:18:36.278Z,18.63
2017-12-04T18:21:05.567Z,18.77
2017-12-04T18:23:34.447Z,17.60
2017-12-04T18:26:03.339Z,17.87
2017-12-04T18:28:32.188Z,18.17
2017-12-04T18:31:01.036Z,17.53
2017-12-04T18:33:29.920Z,18.23
2017-12-04T18:35:58.767Z,17.87
2017-12-04T18:38:30.055Z,17.90
2017-12-04T18:40:58.924Z,16.90
2017-12-04T18:43:27.824Z,17.27
2017-12-04T18:45:56.694Z,17.73
2017-12-04T18:48:25.563Z,17.03
2017-12-04T18:50:54.412Z,16.83
2017-12-04T18:53:23.253Z,17.10
2017-12-04T18:55:52.130Z,17.60
2017-12-04T18:58:21.078Z,19.83
2017-12-04T19:00:49.920Z,17.13
2017-12-04T19:03:18.786Z,18.30
2017-12-04T19:05:47.676Z,17.90
2017-12-04T19:08:16.517Z,18.43
2017-12-04T19:10:45.384Z,17.87
2017-12-04T19:13:14.224Z,18.60
2017-12-04T19:15:43.074Z,18.57
2017-12-04T19:18:11.966Z,17.57
2017-12-04T19:20:40.808Z,18.53
2017-12-04T19:23:09.685Z,18.87
2017-12-04T19:25:38.546Z,18.57
2017-12-04T19:28:07.396Z,16.90
2017-12-04T19:30:36.262Z,18.80
2017-12-04T19:33:05.878Z,18.33
2017-12-04T19:35:34.740Z,18.83
2017-12-04T19:38:03.580Z,19.20
2017-12-04T19:40:32.444Z,21.33
2017-12-04T19:43:01.732Z,23.90
2017-12-04T19:45:31.348Z,60.33
2017-12-04T19:48:00.214Z,19.93
2017-12-04T19:50:29.077Z,30.30
2017-12-04T19:52:57.964Z,27.60
2017-12-04T19:55:26.839Z,22.07
2017-12-04T19:57:55.704Z,26.13
2017-12-04T20:00:24.552Z,21.97
2017-12-04T20:02:54.372Z,27.03
2017-12-04T20:05:23.640Z,26.77
2017-12-04T20:07:52.484Z,24.03
2017-12-04T20:10:21.364Z,22.67
2017-12-04T20:12:50.212Z,25.37
2017-12-04T20:15:19.212Z,20.70
2017-12-04T20:17:48.121Z,23.87
2017-12-04T20:20:17.174Z,23.33
2017-12-04T20:22:46.056Z,23.77
2017-12-04T20:25:14.915Z,24.33
2017-12-04T20:27:44.408Z,24.00
2017-12-04T20:30:13.252Z,25.43
2017-12-04T20:32:42.106Z,23.27
2017-12-04T20:35:10.950Z,22.07
2017-12-04T20:37:39.820Z,23.27
2017-12-04T20:40:09.339Z,22.40
2017-12-04T20:42:38.198Z,24.00
2017-12-04T20:45:07.083Z,22.47
2017-12-04T20:47:35.963Z,24.87
2017-12-04T20:50:04.844Z,23.97
2017-12-04T20:52:33.696Z,23.13
2017-12-04T20:55:02.562Z,24.63
2017-12-04T20:57:31.406Z,25.30
2017-12-04T21:00:00.262Z,25.87
2017-12-04T21:02:29.126Z,25.10
2017-12-04T21:04:57.996Z,25.83
2017-12-04T21:07:26.874Z,25.03
2017-12-04T21:10:01.691Z,28.13
2017-12-04T21:12:30.545Z,26.77
2017-12-04T21:15:05.474Z,29.87
2017-12-04T21:17:34.550Z,29.53
2017-12-04T21:20:04.160Z,30.07
2017-12-04T21:22:33.776Z,32.87
2017-12-04T21:25:04.670Z,33.07
2017-12-04T21:27:33.524Z,34.60
2017-12-04T21:30:02.698Z,35.23
2017-12-04T21:32:32.535Z,34.33
2017-12-04T21:35:01.484Z,35.27
2017-12-04T21:37:30.351Z,33.77
2017-12-04T21:39:59.204Z,35.50
2017-12-04T21:42:28.073Z,31.97
2017-12-04T21:44:56.936Z,32.40
2017-12-04T21:47:25.899Z,34.97
2017-12-04T21:49:54.805Z,42.10
2017-12-04T21:52:24.395Z,35.93
2017-12-04T21:54:53.699Z,39.63
2017-12-04T21:57:23.501Z,40.63
2017-12-04T21:59:52.357Z,53.07
2017-12-04T22:02:21.196Z,40.83
2017-12-04T22:04:50.041Z,37.07
2017-12-04T22:07:19.024Z,40.33
2017-12-04T22:09:47.930Z,40.37
2017-12-04T22:12:16.826Z,36.23
2017-12-04T22:14:45.702Z,36.87
2017-12-04T22:17:14.595Z,40.17
2017-12-04T22:19:43.567Z,35.97
2017-12-04T22:22:12.436Z,38.40
2017-12-04T22:24:41.279Z,45.07
2017-12-04T22:27:10.918Z,38.60
2017-12-04T22:29:39.857Z,38.87
2017-12-04T22:32:09.699Z,38.50
2017-12-04T22:34:38.557Z,38.03
2017-12-04T22:37:07.419Z,36.73
2017-12-04T22:39:36.269Z,43.53
2017-12-04T22:42:05.115Z,37.17
2017-12-04T22:44:33.981Z,36.80
2017-12-04T22:47:02.841Z,37.80
2017-12-04T22:49:31.698Z,39.67
2017-12-04T22:52:00.583Z,38.93
2017-12-04T22:54:29.448Z,37.17
2017-12-04T22:56:58.322Z,38.60
2017-12-04T22:59:27.187Z,36.80
2017-12-04T23:01:56.173Z,38.53
2017-12-04T23:04:25.709Z,36.77
2017-12-04T23:06:54.569Z,36.33
2017-12-04T23:09:23.463Z,35.37
2017-12-04T23:11:52.359Z,37.17
2017-12-04T23:14:21.839Z,37.13
2017-12-04T23:16:50.867Z,36.73
2017-12-04T23:19:19.735Z,38.67
2017-12-04T23:21:48.609Z,38.67
2017-12-04T23:24:17.453Z,36.70
2017-12-04T23:26:46.343Z,37.30
2017-12-04T23:29:15.211Z,36.80
2017-12-04T23:31:44.060Z,36.07
2017-12-04T23:34:13.527Z,33.60
2017-12-04T23:36:42.465Z,34.87
2017-12-04T23:39:11.338Z,34.53
2017-12-04T23:41:40.192Z,37.13
2017-12-04T23:44:09.090Z,37.67
2017-12-04T23:46:37.940Z,34.93
2017-12-04T23:49:06.786Z,34.40
2017-12-04T23:51:35.664Z,34.13
2017-12-04T23:54:04.527Z,33.13
2017-12-04T23:56:33.423Z,33.17
2017-12-04T23:59:02.357Z,34.10
